sensor_id;sensor_type;location;lat;lon;timestamp;P1;durP1;ratioP1;P2;durP2;ratioP2
71490;SDS011;59307;50.060;9.150;2023-05-07T00:01:09;4.30;;;2.50;;
71490;SDS011;59307;50.060;9.150;2023-05-07T00:03:36;6.65;;;2.85;;
71490;SDS011;59307;50.060;9.150;2023-05-07T00:06:01;4.67;;;2.20;;
71490;SDS011;59307;50.060;9.150;2023-05-07T00:08:26;6.87;;;2.33;;
71490;SDS011;59307;50.060;9.150;2023-05-07T00:10:51;4.00;;;2.13;;
71490;SDS011;59307;50.060;9.150;2023-05-07T00:13:17;4.07;;;1.83;;
71490;SDS011;59307;50.060;9.150;2023-05-07T00:15:42;4.43;;;2.00;;
71490;SDS011;59307;50.060;9.150;2023-05-07T00:18:07;4.13;;;2.00;;
71490;SDS011;59307;50.060;9.150;2023-05-07T00:20:32;3.40;;;1.80;;
71490;SDS011;59307;50.060;9.150;2023-05-07T00:22:57;3.67;;;2.07;;
71490;SDS011;59307;50.060;9.150;2023-05-07T00:25:23;4.17;;;2.30;;
71490;SDS011;59307;50.060;9.150;2023-05-07T00:27:48;3.53;;;1.93;;
71490;SDS011;59307;50.060;9.150;2023-05-07T00:30:13;4.17;;;2.27;;
71490;SDS011;59307;50.060;9.150;2023-05-07T00:32:38;4.10;;;1.90;;
71490;SDS011;59307;50.060;9.150;2023-05-07T00:35:04;2.70;;;1.90;;
71490;SDS011;59307;50.060;9.150;2023-05-07T00:37:29;3.40;;;1.90;;
71490;SDS011;59307;50.060;9.150;2023-05-07T00:39:55;5.47;;;2.10;;
71490;SDS011;59307;50.060;9.150;2023-05-07T00:42:20;4.75;;;1.88;;
71490;SDS011;59307;50.060;9.150;2023-05-07T00:44:45;4.07;;;2.13;;
71490;SDS011;59307;50.060;9.150;2023-05-07T00:47:11;3.50;;;1.70;;
71490;SDS011;59307;50.060;9.150;2023-05-07T00:49:43;4.23;;;1.90;;
71490;SDS011;59307;50.060;9.150;2023-05-07T00:52:09;2.72;;;1.77;;
71490;SDS011;59307;50.060;9.150;2023-05-07T00:54:35;6.05;;;2.00;;
71490;SDS011;59307;50.060;9.150;2023-05-07T00:57:02;4.03;;;2.37;;
71490;SDS011;59307;50.060;9.150;2023-05-07T00:59:27;2.90;;;1.80;;
71490;SDS011;59307;50.060;9.150;2023-05-07T01:01:52;2.53;;;1.60;;
71490;SDS011;59307;50.060;9.150;2023-05-07T01:04:18;4.77;;;2.00;;
71490;SDS011;59307;50.060;9.150;2023-05-07T01:06:44;4.50;;;1.60;;
71490;SDS011;59307;50.060;9.150;2023-05-07T01:09:09;2.47;;;1.60;;
71490;SDS011;59307;50.060;9.150;2023-05-07T01:11:34;3.13;;;1.67;;
71490;SDS011;59307;50.060;9.150;2023-05-07T01:13:59;3.63;;;1.90;;
71490;SDS011;59307;50.060;9.150;2023-05-07T01:16:25;3.30;;;1.97;;
71490;SDS011;59307;50.060;9.150;2023-05-07T01:18:50;3.83;;;1.67;;
71490;SDS011;59307;50.060;9.150;2023-05-07T01:21:17;3.67;;;1.88;;
71490;SDS011;59307;50.060;9.150;2023-05-07T01:23:42;3.77;;;1.80;;
71490;SDS011;59307;50.060;9.150;2023-05-07T01:26:08;5.87;;;1.80;;
71490;SDS011;59307;50.060;9.150;2023-05-07T01:28:33;2.40;;;1.77;;
71490;SDS011;59307;50.060;9.150;2023-05-07T01:31:00;3.93;;;1.83;;
71490;SDS011;59307;50.060;9.150;2023-05-07T01:33:26;3.47;;;2.20;;
71490;SDS011;59307;50.060;9.150;2023-05-07T01:35:53;3.15;;;1.60;;
71490;SDS011;59307;50.060;9.150;2023-05-07T01:38:18;4.77;;;1.90;;
71490;SDS011;59307;50.060;9.150;2023-05-07T01:40:44;6.03;;;2.10;;
71490;SDS011;59307;50.060;9.150;2023-05-07T01:43:09;2.63;;;1.77;;
71490;SDS011;59307;50.060;9.150;2023-05-07T01:45:35;3.67;;;1.80;;
71490;SDS011;59307;50.060;9.150;2023-05-07T01:48:01;5.68;;;1.73;;
71490;SDS011;59307;50.060;9.150;2023-05-07T01:50:26;3.47;;;1.80;;
71490;SDS011;59307;50.060;9.150;2023-05-07T01:52:52;3.90;;;2.00;;
71490;SDS011;59307;50.060;9.150;2023-05-07T01:55:17;4.53;;;2.00;;
71490;SDS011;59307;50.060;9.150;2023-05-07T01:57:43;3.00;;;1.80;;
71490;SDS011;59307;50.060;9.150;2023-05-07T02:00:08;3.47;;;1.90;;
71490;SDS011;59307;50.060;9.150;2023-05-07T02:02:34;3.25;;;1.73;;
71490;SDS011;59307;50.060;9.150;2023-05-07T02:04:59;3.03;;;1.80;;
71490;SDS011;59307;50.060;9.150;2023-05-07T02:07:25;3.78;;;1.90;;
71490;SDS011;59307;50.060;9.150;2023-05-07T02:09:50;3.97;;;1.70;;
71490;SDS011;59307;50.060;9.150;2023-05-07T02:12:15;3.00;;;1.90;;
71490;SDS011;59307;50.060;9.150;2023-05-07T02:14:41;3.23;;;2.00;;
71490;SDS011;59307;50.060;9.150;2023-05-07T02:17:06;3.53;;;1.70;;
71490;SDS011;59307;50.060;9.150;2023-05-07T02:19:31;4.10;;;1.97;;
71490;SDS011;59307;50.060;9.150;2023-05-07T02:21:56;4.93;;;2.30;;
71490;SDS011;59307;50.060;9.150;2023-05-07T02:24:21;2.53;;;1.80;;
71490;SDS011;59307;50.060;9.150;2023-05-07T02:26:47;2.90;;;1.90;;
71490;SDS011;59307;50.060;9.150;2023-05-07T02:29:12;3.13;;;1.80;;
71490;SDS011;59307;50.060;9.150;2023-05-07T02:31:37;2.50;;;1.80;;
71490;SDS011;59307;50.060;9.150;2023-05-07T02:34:02;6.65;;;2.00;;
71490;SDS011;59307;50.060;9.150;2023-05-07T02:36:28;5.13;;;2.53;;
71490;SDS011;59307;50.060;9.150;2023-05-07T02:38:54;4.03;;;2.17;;
71490;SDS011;59307;50.060;9.150;2023-05-07T02:41:19;3.83;;;1.83;;
71490;SDS011;59307;50.060;9.150;2023-05-07T02:43:45;2.92;;;2.00;;
71490;SDS011;59307;50.060;9.150;2023-05-07T02:46:10;4.00;;;2.47;;
71490;SDS011;59307;50.060;9.150;2023-05-07T02:48:35;3.80;;;2.20;;
71490;SDS011;59307;50.060;9.150;2023-05-07T02:51:01;4.30;;;2.03;;
71490;SDS011;59307;50.060;9.150;2023-05-07T02:53:26;4.93;;;2.30;;
71490;SDS011;59307;50.060;9.150;2023-05-07T02:55:55;3.83;;;2.20;;
71490;SDS011;59307;50.060;9.150;2023-05-07T02:58:20;3.80;;;2.22;;
71490;SDS011;59307;50.060;9.150;2023-05-07T03:00:46;3.90;;;2.00;;
71490;SDS011;59307;50.060;9.150;2023-05-07T03:03:11;5.50;;;2.10;;
71490;SDS011;59307;50.060;9.150;2023-05-07T03:05:36;4.73;;;2.27;;
71490;SDS011;59307;50.060;9.150;2023-05-07T03:08:02;3.10;;;2.10;;
71490;SDS011;59307;50.060;9.150;2023-05-07T03:10:27;3.53;;;1.97;;
71490;SDS011;59307;50.060;9.150;2023-05-07T03:12:52;3.83;;;1.90;;
71490;SDS011;59307;50.060;9.150;2023-05-07T03:15:18;5.00;;;1.90;;
71490;SDS011;59307;50.060;9.150;2023-05-07T03:17:43;3.50;;;2.07;;
71490;SDS011;59307;50.060;9.150;2023-05-07T03:20:08;2.57;;;2.00;;
71490;SDS011;59307;50.060;9.150;2023-05-07T03:22:34;5.35;;;2.20;;
71490;SDS011;59307;50.060;9.150;2023-05-07T03:24:59;3.17;;;1.90;;
71490;SDS011;59307;50.060;9.150;2023-05-07T03:27:24;3.57;;;1.90;;
71490;SDS011;59307;50.060;9.150;2023-05-07T03:29:50;6.00;;;2.10;;
71490;SDS011;59307;50.060;9.150;2023-05-07T03:32:15;5.40;;;2.40;;
71490;SDS011;59307;50.060;9.150;2023-05-07T03:34:40;4.07;;;2.30;;
71490;SDS011;59307;50.060;9.150;2023-05-07T03:37:06;4.10;;;2.00;;
71490;SDS011;59307;50.060;9.150;2023-05-07T03:39:31;5.70;;;2.40;;
71490;SDS011;59307;50.060;9.150;2023-05-07T03:41:57;2.83;;;2.00;;
71490;SDS011;59307;50.060;9.150;2023-05-07T03:44:22;4.28;;;2.10;;
71490;SDS011;59307;50.060;9.150;2023-05-07T03:46:48;5.23;;;2.50;;
71490;SDS011;59307;50.060;9.150;2023-05-07T03:49:13;6.23;;;2.40;;
71490;SDS011;59307;50.060;9.150;2023-05-07T03:51:38;3.47;;;2.20;;
71490;SDS011;59307;50.060;9.150;2023-05-07T03:54:03;4.30;;;2.33;;
71490;SDS011;59307;50.060;9.150;2023-05-07T03:56:28;4.60;;;2.70;;
71490;SDS011;59307;50.060;9.150;2023-05-07T03:58:54;4.13;;;2.67;;
71490;SDS011;59307;50.060;9.150;2023-05-07T04:01:19;3.63;;;2.60;;
71490;SDS011;59307;50.060;9.150;2023-05-07T04:03:45;5.40;;;2.70;;
71490;SDS011;59307;50.060;9.150;2023-05-07T04:06:10;9.90;;;3.07;;
71490;SDS011;59307;50.060;9.150;2023-05-07T04:08:35;5.00;;;2.40;;
71490;SDS011;59307;50.060;9.150;2023-05-07T04:11:00;3.80;;;2.50;;
71490;SDS011;59307;50.060;9.150;2023-05-07T04:13:26;3.77;;;2.67;;
71490;SDS011;59307;50.060;9.150;2023-05-07T04:15:51;5.10;;;2.60;;
71490;SDS011;59307;50.060;9.150;2023-05-07T04:18:17;4.60;;;2.57;;
71490;SDS011;59307;50.060;9.150;2023-05-07T04:20:42;4.27;;;2.80;;
71490;SDS011;59307;50.060;9.150;2023-05-07T04:23:07;4.83;;;2.80;;
71490;SDS011;59307;50.060;9.150;2023-05-07T04:25:32;5.40;;;2.90;;
71490;SDS011;59307;50.060;9.150;2023-05-07T04:27:58;4.13;;;2.60;;
71490;SDS011;59307;50.060;9.150;2023-05-07T04:30:23;5.47;;;2.70;;
71490;SDS011;59307;50.060;9.150;2023-05-07T04:32:48;5.47;;;2.50;;
71490;SDS011;59307;50.060;9.150;2023-05-07T04:35:14;4.30;;;2.70;;
71490;SDS011;59307;50.060;9.150;2023-05-07T04:37:39;4.80;;;2.73;;
71490;SDS011;59307;50.060;9.150;2023-05-07T04:40:05;4.40;;;2.80;;
71490;SDS011;59307;50.060;9.150;2023-05-07T04:42:30;5.32;;;2.65;;
71490;SDS011;59307;50.060;9.150;2023-05-07T04:44:56;5.40;;;2.57;;
71490;SDS011;59307;50.060;9.150;2023-05-07T04:47:21;6.57;;;3.00;;
71490;SDS011;59307;50.060;9.150;2023-05-07T04:49:46;5.80;;;2.40;;
71490;SDS011;59307;50.060;9.150;2023-05-07T04:52:11;4.50;;;2.70;;
71490;SDS011;59307;50.060;9.150;2023-05-07T04:54:37;3.70;;;2.43;;
71490;SDS011;59307;50.060;9.150;2023-05-07T04:57:03;5.67;;;2.50;;
71490;SDS011;59307;50.060;9.150;2023-05-07T04:59:28;9.10;;;3.13;;
71490;SDS011;59307;50.060;9.150;2023-05-07T05:01:53;6.70;;;3.60;;
71490;SDS011;59307;50.060;9.150;2023-05-07T05:04:18;7.87;;;3.60;;
71490;SDS011;59307;50.060;9.150;2023-05-07T05:06:44;6.37;;;3.50;;
71490;SDS011;59307;50.060;9.150;2023-05-07T05:09:09;6.13;;;3.47;;
71490;SDS011;59307;50.060;9.150;2023-05-07T05:11:34;5.67;;;3.70;;
71490;SDS011;59307;50.060;9.150;2023-05-07T05:13:59;5.17;;;3.30;;
71490;SDS011;59307;50.060;9.150;2023-05-07T05:16:25;5.57;;;3.58;;
71490;SDS011;59307;50.060;9.150;2023-05-07T05:18:50;5.33;;;3.40;;
71490;SDS011;59307;50.060;9.150;2023-05-07T05:21:17;6.88;;;3.50;;
71490;SDS011;59307;50.060;9.150;2023-05-07T05:23:42;5.97;;;3.83;;
71490;SDS011;59307;50.060;9.150;2023-05-07T05:26:07;5.80;;;3.40;;
71490;SDS011;59307;50.060;9.150;2023-05-07T05:28:32;5.43;;;3.30;;
71490;SDS011;59307;50.060;9.150;2023-05-07T05:30:58;5.07;;;3.23;;
71490;SDS011;59307;50.060;9.150;2023-05-07T05:33:23;5.03;;;3.33;;
71490;SDS011;59307;50.060;9.150;2023-05-07T05:35:49;5.77;;;3.40;;
71490;SDS011;59307;50.060;9.150;2023-05-07T05:38:14;4.93;;;3.45;;
71490;SDS011;59307;50.060;9.150;2023-05-07T05:40:39;5.10;;;3.60;;
71490;SDS011;59307;50.060;9.150;2023-05-07T05:43:05;6.20;;;3.50;;
71490;SDS011;59307;50.060;9.150;2023-05-07T05:45:30;6.40;;;4.40;;
71490;SDS011;59307;50.060;9.150;2023-05-07T05:47:56;7.03;;;3.90;;
71490;SDS011;59307;50.060;9.150;2023-05-07T05:50:21;5.43;;;3.88;;
71490;SDS011;59307;50.060;9.150;2023-05-07T05:52:46;5.17;;;3.47;;
71490;SDS011;59307;50.060;9.150;2023-05-07T05:55:12;7.23;;;3.70;;
71490;SDS011;59307;50.060;9.150;2023-05-07T05:57:37;6.80;;;3.87;;
71490;SDS011;59307;50.060;9.150;2023-05-07T06:00:02;6.22;;;3.80;;
71490;SDS011;59307;50.060;9.150;2023-05-07T06:02:29;6.13;;;3.90;;
71490;SDS011;59307;50.060;9.150;2023-05-07T06:04:54;7.03;;;3.78;;
71490;SDS011;59307;50.060;9.150;2023-05-07T06:07:20;5.77;;;4.10;;
71490;SDS011;59307;50.060;9.150;2023-05-07T06:09:45;5.67;;;3.77;;
71490;SDS011;59307;50.060;9.150;2023-05-07T06:12:10;7.10;;;4.07;;
71490;SDS011;59307;50.060;9.150;2023-05-07T06:14:35;6.13;;;3.70;;
71490;SDS011;59307;50.060;9.150;2023-05-07T06:17:00;6.03;;;3.80;;
71490;SDS011;59307;50.060;9.150;2023-05-07T06:19:26;6.17;;;4.13;;
71490;SDS011;59307;50.060;9.150;2023-05-07T06:21:53;6.00;;;3.90;;
71490;SDS011;59307;50.060;9.150;2023-05-07T06:24:18;7.30;;;3.83;;
71490;SDS011;59307;50.060;9.150;2023-05-07T06:26:43;6.93;;;4.23;;
71490;SDS011;59307;50.060;9.150;2023-05-07T06:29:08;6.83;;;4.10;;
71490;SDS011;59307;50.060;9.150;2023-05-07T06:31:33;7.83;;;4.87;;
71490;SDS011;59307;50.060;9.150;2023-05-07T06:33:59;8.07;;;4.27;;
71490;SDS011;59307;50.060;9.150;2023-05-07T06:36:24;6.90;;;4.60;;
71490;SDS011;59307;50.060;9.150;2023-05-07T06:38:50;7.40;;;4.43;;
71490;SDS011;59307;50.060;9.150;2023-05-07T06:41:15;6.90;;;4.45;;
71490;SDS011;59307;50.060;9.150;2023-05-07T06:43:40;5.70;;;4.13;;
71490;SDS011;59307;50.060;9.150;2023-05-07T06:46:06;6.37;;;4.00;;
71490;SDS011;59307;50.060;9.150;2023-05-07T06:48:31;6.43;;;4.07;;
71490;SDS011;59307;50.060;9.150;2023-05-07T06:50:56;6.47;;;4.10;;
71490;SDS011;59307;50.060;9.150;2023-05-07T06:53:23;6.82;;;3.85;;
71490;SDS011;59307;50.060;9.150;2023-05-07T06:55:48;7.32;;;4.45;;
71490;SDS011;59307;50.060;9.150;2023-05-07T06:58:13;6.97;;;4.13;;
71490;SDS011;59307;50.060;9.150;2023-05-07T07:00:38;7.13;;;4.03;;
71490;SDS011;59307;50.060;9.150;2023-05-07T07:03:03;9.90;;;4.37;;
71490;SDS011;59307;50.060;9.150;2023-05-07T07:05:29;7.73;;;3.87;;
71490;SDS011;59307;50.060;9.150;2023-05-07T07:07:54;7.17;;;4.13;;
71490;SDS011;59307;50.060;9.150;2023-05-07T07:10:19;5.40;;;3.87;;
71490;SDS011;59307;50.060;9.150;2023-05-07T07:12:45;7.37;;;4.30;;
71490;SDS011;59307;50.060;9.150;2023-05-07T07:15:10;7.83;;;4.60;;
71490;SDS011;59307;50.060;9.150;2023-05-07T07:17:35;7.38;;;4.47;;
71490;SDS011;59307;50.060;9.150;2023-05-07T07:20:01;8.30;;;4.10;;
71490;SDS011;59307;50.060;9.150;2023-05-07T07:22:26;7.70;;;4.23;;
71490;SDS011;59307;50.060;9.150;2023-05-07T07:24:51;6.97;;;4.47;;
71490;SDS011;59307;50.060;9.150;2023-05-07T07:27:16;6.07;;;4.20;;
71490;SDS011;59307;50.060;9.150;2023-05-07T07:29:41;8.30;;;4.30;;
71490;SDS011;59307;50.060;9.150;2023-05-07T07:32:07;6.73;;;4.37;;
71490;SDS011;59307;50.060;9.150;2023-05-07T07:34:32;7.13;;;4.10;;
71490;SDS011;59307;50.060;9.150;2023-05-07T07:36:57;6.63;;;4.27;;
71490;SDS011;59307;50.060;9.150;2023-05-07T07:39:22;6.63;;;4.67;;
71490;SDS011;59307;50.060;9.150;2023-05-07T07:41:47;6.53;;;4.00;;
71490;SDS011;59307;50.060;9.150;2023-05-07T07:44:13;6.27;;;4.17;;
71490;SDS011;59307;50.060;9.150;2023-05-07T07:46:38;5.83;;;3.83;;
71490;SDS011;59307;50.060;9.150;2023-05-07T07:49:03;8.67;;;4.30;;
71490;SDS011;59307;50.060;9.150;2023-05-07T07:51:28;7.20;;;4.20;;
71490;SDS011;59307;50.060;9.150;2023-05-07T07:53:53;6.33;;;4.20;;
71490;SDS011;59307;50.060;9.150;2023-05-07T07:56:19;5.47;;;4.20;;
71490;SDS011;59307;50.060;9.150;2023-05-07T07:58:44;5.63;;;4.05;;
71490;SDS011;59307;50.060;9.150;2023-05-07T08:01:10;6.43;;;4.20;;
71490;SDS011;59307;50.060;9.150;2023-05-07T08:03:37;7.45;;;4.32;;
71490;SDS011;59307;50.060;9.150;2023-05-07T08:06:03;7.23;;;4.60;;
71490;SDS011;59307;50.060;9.150;2023-05-07T08:08:28;6.93;;;4.37;;
71490;SDS011;59307;50.060;9.150;2023-05-07T08:10:53;8.03;;;3.90;;
71490;SDS011;59307;50.060;9.150;2023-05-07T08:13:18;7.45;;;4.68;;
71490;SDS011;59307;50.060;9.150;2023-05-07T08:15:44;6.37;;;4.30;;
71490;SDS011;59307;50.060;9.150;2023-05-07T08:18:09;6.83;;;4.07;;
71490;SDS011;59307;50.060;9.150;2023-05-07T08:20:34;7.00;;;4.10;;
71490;SDS011;59307;50.060;9.150;2023-05-07T08:23:04;5.95;;;4.32;;
71490;SDS011;59307;50.060;9.150;2023-05-07T08:25:29;7.93;;;4.53;;
71490;SDS011;59307;50.060;9.150;2023-05-07T08:27:54;6.57;;;4.37;;
71490;SDS011;59307;50.060;9.150;2023-05-07T08:30:20;8.23;;;4.40;;
71490;SDS011;59307;50.060;9.150;2023-05-07T08:32:45;6.90;;;4.40;;
71490;SDS011;59307;50.060;9.150;2023-05-07T08:35:10;7.20;;;4.20;;
71490;SDS011;59307;50.060;9.150;2023-05-07T08:37:36;6.68;;;4.18;;
71490;SDS011;59307;50.060;9.150;2023-05-07T08:40:01;8.17;;;4.90;;
71490;SDS011;59307;50.060;9.150;2023-05-07T08:42:26;7.10;;;4.33;;
71490;SDS011;59307;50.060;9.150;2023-05-07T08:44:52;6.93;;;4.10;;
71490;SDS011;59307;50.060;9.150;2023-05-07T08:47:20;6.28;;;4.18;;
71490;SDS011;59307;50.060;9.150;2023-05-07T08:49:47;6.97;;;4.47;;
71490;SDS011;59307;50.060;9.150;2023-05-07T08:52:12;8.35;;;4.60;;
71490;SDS011;59307;50.060;9.150;2023-05-07T08:54:38;6.20;;;4.20;;
71490;SDS011;59307;50.060;9.150;2023-05-07T08:57:03;6.50;;;4.10;;
71490;SDS011;59307;50.060;9.150;2023-05-07T08:59:28;6.40;;;4.27;;
71490;SDS011;59307;50.060;9.150;2023-05-07T09:01:54;7.20;;;4.15;;
71490;SDS011;59307;50.060;9.150;2023-05-07T09:04:20;7.13;;;4.50;;
71490;SDS011;59307;50.060;9.150;2023-05-07T09:06:45;7.13;;;4.57;;
71490;SDS011;59307;50.060;9.150;2023-05-07T09:09:10;6.57;;;4.60;;
71490;SDS011;59307;50.060;9.150;2023-05-07T09:11:39;7.97;;;4.70;;
71490;SDS011;59307;50.060;9.150;2023-05-07T09:14:04;9.03;;;4.13;;
71490;SDS011;59307;50.060;9.150;2023-05-07T09:16:30;6.13;;;4.20;;
71490;SDS011;59307;50.060;9.150;2023-05-07T09:18:56;6.53;;;4.47;;
71490;SDS011;59307;50.060;9.150;2023-05-07T09:21:22;7.68;;;4.47;;
71490;SDS011;59307;50.060;9.150;2023-05-07T09:23:54;5.77;;;4.10;;
71490;SDS011;59307;50.060;9.150;2023-05-07T09:26:22;6.38;;;4.63;;
71490;SDS011;59307;50.060;9.150;2023-05-07T09:28:48;6.07;;;4.10;;
71490;SDS011;59307;50.060;9.150;2023-05-07T09:31:13;5.70;;;4.30;;
71490;SDS011;59307;50.060;9.150;2023-05-07T09:33:38;7.23;;;4.33;;
71490;SDS011;59307;50.060;9.150;2023-05-07T09:36:04;7.17;;;4.30;;
71490;SDS011;59307;50.060;9.150;2023-05-07T09:38:30;6.93;;;4.40;;
71490;SDS011;59307;50.060;9.150;2023-05-07T09:41:02;5.93;;;4.20;;
71490;SDS011;59307;50.060;9.150;2023-05-07T09:43:31;6.55;;;4.28;;
71490;SDS011;59307;50.060;9.150;2023-05-07T09:45:56;6.25;;;4.28;;
71490;SDS011;59307;50.060;9.150;2023-05-07T09:48:22;6.53;;;4.30;;
71490;SDS011;59307;50.060;9.150;2023-05-07T09:50:49;5.30;;;4.07;;
71490;SDS011;59307;50.060;9.150;2023-05-07T09:53:14;6.13;;;4.25;;
71490;SDS011;59307;50.060;9.150;2023-05-07T09:55:41;5.57;;;3.90;;
71490;SDS011;59307;50.060;9.150;2023-05-07T09:58:06;5.60;;;4.03;;
71490;SDS011;59307;50.060;9.150;2023-05-07T10:00:32;5.73;;;4.20;;
71490;SDS011;59307;50.060;9.150;2023-05-07T10:02:57;5.28;;;3.85;;
71490;SDS011;59307;50.060;9.150;2023-05-07T10:05:23;6.23;;;3.83;;
71490;SDS011;59307;50.060;9.150;2023-05-07T10:07:49;8.43;;;4.10;;
71490;SDS011;59307;50.060;9.150;2023-05-07T10:10:15;7.50;;;3.78;;
71490;SDS011;59307;50.060;9.150;2023-05-07T10:12:41;6.07;;;4.10;;
71490;SDS011;59307;50.060;9.150;2023-05-07T10:15:07;6.28;;;4.13;;
71490;SDS011;59307;50.060;9.150;2023-05-07T10:17:34;6.05;;;3.90;;
71490;SDS011;59307;50.060;9.150;2023-05-07T10:20:00;6.03;;;3.73;;
71490;SDS011;59307;50.060;9.150;2023-05-07T10:22:25;5.17;;;3.73;;
71490;SDS011;59307;50.060;9.150;2023-05-07T10:24:52;5.75;;;3.80;;
71490;SDS011;59307;50.060;9.150;2023-05-07T10:27:19;7.55;;;4.07;;
71490;SDS011;59307;50.060;9.150;2023-05-07T10:30:08;7.15;;;4.00;;
71490;SDS011;59307;50.060;9.150;2023-05-07T10:32:47;5.78;;;3.72;;
71490;SDS011;59307;50.060;9.150;2023-05-07T10:35:23;5.40;;;3.70;;
71490;SDS011;59307;50.060;9.150;2023-05-07T10:37:49;5.05;;;3.50;;
71490;SDS011;59307;50.060;9.150;2023-05-07T10:40:14;5.60;;;3.47;;
71490;SDS011;59307;50.060;9.150;2023-05-07T10:43:02;5.63;;;3.40;;
71490;SDS011;59307;50.060;9.150;2023-05-07T10:45:26;7.57;;;3.30;;
71490;SDS011;59307;50.060;9.150;2023-05-07T10:48:07;5.53;;;3.50;;
71490;SDS011;59307;50.060;9.150;2023-05-07T10:50:36;5.38;;;3.42;;
71490;SDS011;59307;50.060;9.150;2023-05-07T10:55:42;5.30;;;3.05;;
71490;SDS011;59307;50.060;9.150;2023-05-07T11:00:58;5.03;;;3.37;;
71490;SDS011;59307;50.060;9.150;2023-05-07T11:03:27;5.15;;;3.40;;
71490;SDS011;59307;50.060;9.150;2023-05-07T11:06:08;4.95;;;3.50;;
71490;SDS011;59307;50.060;9.150;2023-05-07T11:08:55;3.95;;;2.92;;
71490;SDS011;59307;50.060;9.150;2023-05-07T11:11:43;4.50;;;3.08;;
71490;SDS011;59307;50.060;9.150;2023-05-07T11:14:05;6.83;;;3.07;;
71490;SDS011;59307;50.060;9.150;2023-05-07T11:16:30;4.70;;;2.90;;
71490;SDS011;59307;50.060;9.150;2023-05-07T11:18:58;5.70;;;3.38;;
71490;SDS011;59307;50.060;9.150;2023-05-07T11:23:58;8.25;;;3.10;;
71490;SDS011;59307;50.060;9.150;2023-05-07T11:26:23;5.50;;;3.33;;
71490;SDS011;59307;50.060;9.150;2023-05-07T11:28:50;4.37;;;3.10;;
71490;SDS011;59307;50.060;9.150;2023-05-07T11:31:17;4.80;;;3.05;;
71490;SDS011;59307;50.060;9.150;2023-05-07T11:33:45;3.83;;;2.90;;
71490;SDS011;59307;50.060;9.150;2023-05-07T11:36:10;5.43;;;2.90;;
71490;SDS011;59307;50.060;9.150;2023-05-07T11:38:36;3.87;;;2.70;;
71490;SDS011;59307;50.060;9.150;2023-05-07T11:41:02;4.20;;;2.97;;
71490;SDS011;59307;50.060;9.150;2023-05-07T11:43:29;3.33;;;2.50;;
71490;SDS011;59307;50.060;9.150;2023-05-07T11:45:54;5.33;;;2.40;;
71490;SDS011;59307;50.060;9.150;2023-05-07T11:48:20;4.97;;;2.87;;
71490;SDS011;59307;50.060;9.150;2023-05-07T11:53:26;3.38;;;2.15;;
71490;SDS011;59307;50.060;9.150;2023-05-07T11:55:52;3.38;;;1.80;;
71490;SDS011;59307;50.060;9.150;2023-05-07T11:58:20;3.43;;;2.10;;
71490;SDS011;59307;50.060;9.150;2023-05-07T12:00:49;5.05;;;2.10;;
71490;SDS011;59307;50.060;9.150;2023-05-07T12:03:14;3.22;;;2.20;;
71490;SDS011;59307;50.060;9.150;2023-05-07T12:05:40;2.73;;;2.10;;
71490;SDS011;59307;50.060;9.150;2023-05-07T12:08:06;2.95;;;2.10;;
71490;SDS011;59307;50.060;9.150;2023-05-07T12:10:32;3.23;;;2.20;;
71490;SDS011;59307;50.060;9.150;2023-05-07T12:12:57;3.33;;;2.00;;
71490;SDS011;59307;50.060;9.150;2023-05-07T12:15:22;3.70;;;2.00;;
71490;SDS011;59307;50.060;9.150;2023-05-07T12:17:48;4.20;;;2.40;;
71490;SDS011;59307;50.060;9.150;2023-05-07T12:20:13;5.13;;;2.33;;
71490;SDS011;59307;50.060;9.150;2023-05-07T12:22:39;3.27;;;2.03;;
71490;SDS011;59307;50.060;9.150;2023-05-07T12:25:05;4.53;;;1.90;;
71490;SDS011;59307;50.060;9.150;2023-05-07T12:27:31;3.78;;;2.28;;
71490;SDS011;59307;50.060;9.150;2023-05-07T12:29:57;3.30;;;2.20;;
71490;SDS011;59307;50.060;9.150;2023-05-07T12:32:22;5.25;;;2.50;;
71490;SDS011;59307;50.060;9.150;2023-05-07T12:34:51;4.37;;;2.40;;
71490;SDS011;59307;50.060;9.150;2023-05-07T12:37:17;6.15;;;2.50;;
71490;SDS011;59307;50.060;9.150;2023-05-07T12:39:47;4.47;;;2.20;;
71490;SDS011;59307;50.060;9.150;2023-05-07T12:42:16;5.80;;;2.60;;
71490;SDS011;59307;50.060;9.150;2023-05-07T12:44:41;5.40;;;2.63;;
71490;SDS011;59307;50.060;9.150;2023-05-07T12:47:06;3.37;;;2.50;;
71490;SDS011;59307;50.060;9.150;2023-05-07T12:49:33;4.17;;;2.70;;
71490;SDS011;59307;50.060;9.150;2023-05-07T12:51:59;4.13;;;2.60;;
71490;SDS011;59307;50.060;9.150;2023-05-07T12:54:28;5.07;;;2.77;;
71490;SDS011;59307;50.060;9.150;2023-05-07T12:57:04;6.07;;;3.27;;
71490;SDS011;59307;50.060;9.150;2023-05-07T12:59:37;4.30;;;2.80;;
71490;SDS011;59307;50.060;9.150;2023-05-07T13:02:02;4.35;;;2.58;;
71490;SDS011;59307;50.060;9.150;2023-05-07T13:04:27;4.80;;;2.67;;
71490;SDS011;59307;50.060;9.150;2023-05-07T13:06:53;3.50;;;2.53;;
71490;SDS011;59307;50.060;9.150;2023-05-07T13:09:18;4.63;;;2.60;;
71490;SDS011;59307;50.060;9.150;2023-05-07T13:11:43;5.17;;;2.57;;
71490;SDS011;59307;50.060;9.150;2023-05-07T13:14:08;4.37;;;2.50;;
71490;SDS011;59307;50.060;9.150;2023-05-07T13:16:34;3.17;;;2.33;;
71490;SDS011;59307;50.060;9.150;2023-05-07T13:18:59;4.17;;;2.60;;
71490;SDS011;59307;50.060;9.150;2023-05-07T13:21:24;3.27;;;2.33;;
71490;SDS011;59307;50.060;9.150;2023-05-07T13:23:50;3.43;;;2.37;;
71490;SDS011;59307;50.060;9.150;2023-05-07T13:26:15;5.40;;;2.53;;
71490;SDS011;59307;50.060;9.150;2023-05-07T13:28:41;3.73;;;2.47;;
71490;SDS011;59307;50.060;9.150;2023-05-07T13:31:06;4.28;;;2.50;;
71490;SDS011;59307;50.060;9.150;2023-05-07T13:33:32;5.90;;;3.30;;
71490;SDS011;59307;50.060;9.150;2023-05-07T13:35:57;4.37;;;2.87;;
71490;SDS011;59307;50.060;9.150;2023-05-07T13:38:22;4.03;;;2.90;;
71490;SDS011;59307;50.060;9.150;2023-05-07T13:40:47;3.37;;;2.40;;
71490;SDS011;59307;50.060;9.150;2023-05-07T13:43:13;4.93;;;2.40;;
71490;SDS011;59307;50.060;9.150;2023-05-07T13:45:39;3.70;;;2.30;;
71490;SDS011;59307;50.060;9.150;2023-05-07T13:48:04;6.20;;;2.20;;
71490;SDS011;59307;50.060;9.150;2023-05-07T13:50:29;4.67;;;2.20;;
71490;SDS011;59307;50.060;9.150;2023-05-07T13:52:55;3.47;;;2.15;;
71490;SDS011;59307;50.060;9.150;2023-05-07T13:55:21;3.17;;;2.00;;
71490;SDS011;59307;50.060;9.150;2023-05-07T13:57:46;4.65;;;2.38;;
71490;SDS011;59307;50.060;9.150;2023-05-07T14:00:12;3.10;;;2.13;;
71490;SDS011;59307;50.060;9.150;2023-05-07T14:02:37;2.33;;;1.73;;
71490;SDS011;59307;50.060;9.150;2023-05-07T14:05:02;3.70;;;1.77;;
71490;SDS011;59307;50.060;9.150;2023-05-07T14:07:28;3.45;;;1.90;;
71490;SDS011;59307;50.060;9.150;2023-05-07T14:09:54;2.27;;;1.83;;
71490;SDS011;59307;50.060;9.150;2023-05-07T14:12:19;3.30;;;2.10;;
71490;SDS011;59307;50.060;9.150;2023-05-07T14:14:44;4.20;;;2.20;;
71490;SDS011;59307;50.060;9.150;2023-05-07T14:17:10;4.53;;;2.47;;
71490;SDS011;59307;50.060;9.150;2023-05-07T14:19:35;3.50;;;2.33;;
71490;SDS011;59307;50.060;9.150;2023-05-07T14:22:01;4.27;;;2.47;;
71490;SDS011;59307;50.060;9.150;2023-05-07T14:24:26;4.23;;;2.50;;
71490;SDS011;59307;50.060;9.150;2023-05-07T14:26:51;3.53;;;2.07;;
71490;SDS011;59307;50.060;9.150;2023-05-07T14:29:16;3.30;;;1.90;;
71490;SDS011;59307;50.060;9.150;2023-05-07T14:31:43;3.88;;;2.10;;
71490;SDS011;59307;50.060;9.150;2023-05-07T14:34:09;2.40;;;1.88;;
71490;SDS011;59307;50.060;9.150;2023-05-07T14:36:34;5.47;;;1.90;;
71490;SDS011;59307;50.060;9.150;2023-05-07T14:39:00;5.43;;;2.20;;
71490;SDS011;59307;50.060;9.150;2023-05-07T14:41:25;3.65;;;1.67;;
71490;SDS011;59307;50.060;9.150;2023-05-07T14:43:51;2.70;;;1.77;;
71490;SDS011;59307;50.060;9.150;2023-05-07T14:46:17;3.53;;;2.03;;
71490;SDS011;59307;50.060;9.150;2023-05-07T14:48:43;2.50;;;1.80;;
71490;SDS011;59307;50.060;9.150;2023-05-07T14:51:08;3.33;;;1.90;;